Time;durP1;ratioP1;P1;durP2;ratioP2;P2;SDS_P1;SDS_P2;PMS_P1;PMS_P2;Temp;Humidity;BMP_temperature;BMP_pressure;BME280_temperature;BME280_humidity;BME280_pressure;Samples;Min_cycle;Max_cycle;Signal;HPM_P1;HPM_P2
2022/03/18 00:01:12;;;;;;;;;25.75;21.25;;;;;15.28;38.74;100295.69;4898832;28;102444;-86
2022/03/18 00:03:40;;;;;;;;;21.75;21.50;;;;;15.27;38.27;100300.28;4894700;28;103430;-86
2022/03/18 00:06:08;;;;;;;;;27.00;23.25;;;;;15.27;38.48;100304.88;4900440;28;104387;-86
2022/03/18 00:08:35;;;;;;;;;24.75;22.75;;;;;15.26;38.54;100303.22;4895008;28;102453;-86
2022/03/18 00:11:02;;;;;;;;;22.50;21.75;;;;;15.26;38.16;100308.66;4898504;28;102832;-86
2022/03/18 00:13:28;;;;;;;;;24.00;22.75;;;;;15.26;38.07;100311.41;4905507;28;102747;-86
2022/03/18 00:15:56;;;;;;;;;22.75;21.00;;;;;15.24;38.34;100305.28;4906153;28;108803;-86
2022/03/18 00:18:24;;;;;;;;;22.00;19.75;;;;;15.19;38.11;100293.06;4899554;28;102381;-86
2022/03/18 00:20:50;;;;;;;;;23.50;21.50;;;;;15.23;38.41;100295.41;4894757;28;102382;-86
2022/03/18 00:23:18;;;;;;;;;22.00;21.25;;;;;15.21;38.18;100295.63;4901849;28;102593;-86
2022/03/18 00:25:44;;;;;;;;;21.50;20.25;;;;;15.21;38.43;100294.75;4901455;28;104578;-86
2022/03/18 00:28:11;;;;;;;;;23.25;19.75;;;;;15.21;38.13;100303.78;4897181;28;102742;-86
2022/03/18 00:30:39;;;;;;;;;22.00;19.00;;;;;15.21;38.32;100302.94;4895118;28;102924;-85
2022/03/18 00:33:06;;;;;;;;;19.50;17.25;;;;;15.18;37.88;100299.53;4897350;28;102600;-86
2022/03/18 00:35:35;;;;;;;;;18.50;18.50;;;;;15.18;38.00;100299.53;4895239;28;104622;-86
2022/03/18 00:38:02;;;;;;;;;22.00;20.00;;;;;15.18;37.96;100295.97;4888536;28;102388;-85
2022/03/18 00:40:30;;;;;;;;;20.50;19.25;;;;;15.17;38.00;100297.84;4894058;28;102469;-85
2022/03/18 00:42:57;;;;;;;;;18.25;16.75;;;;;15.16;38.34;100292.59;4894688;28;102220;-86
2022/03/18 00:45:24;;;;;;;;;21.75;18.75;;;;;15.14;38.37;100292.78;4892948;28;104052;-86
2022/03/18 00:53:22;;;;;;;;;22.50;18.75;;;;;15.12;38.13;100297.59;4899155;28;104743;-86
2022/03/18 00:55:49;;;;;;;;;24.00;21.25;;;;;15.12;38.14;100300.31;4904698;28;104826;-85
2022/03/18 00:58:15;;;;;;;;;17.50;17.25;;;;;15.12;38.29;100302.19;4897605;28;102672;-85
2022/03/18 01:00:42;;;;;;;;;19.25;17.25;;;;;15.11;37.95;100301.34;4897054;28;102516;-85
2022/03/18 01:03:09;;;;;;;;;17.75;17.75;;;;;15.11;38.30;100301.34;4875376;28;102151;-85
2022/03/18 01:05:36;;;;;;;;;21.50;20.00;;;;;15.11;37.91;100300.50;4878784;28;104304;-85
2022/03/18 01:08:04;;;;;;;;;18.75;17.75;;;;;15.10;37.60;100299.66;4881363;28;102420;-85
2022/03/18 01:10:32;;;;;;;;;16.75;14.75;;;;;15.11;38.02;100295.91;4901466;28;102664;-85
2022/03/18 01:12:59;;;;;;;;;20.00;16.25;;;;;15.08;38.04;100290.81;4896256;28;102700;-85
2022/03/18 01:15:26;;;;;;;;;16.50;15.00;;;;;15.11;37.99;100298.63;4908364;28;104718;-86
2022/03/18 01:17:53;;;;;;;;;20.75;16.25;;;;;15.10;38.33;100294.19;4902683;28;102500;-85
2022/03/18 01:20:20;;;;;;;;;19.50;16.75;;;;;15.10;37.88;100288.75;4887450;28;104451;-86
2022/03/18 01:22:47;;;;;;;;;20.25;17.00;;;;;15.11;37.88;100290.44;4888162;28;102706;-85
2022/03/18 01:25:14;;;;;;;;;17.00;16.50;;;;;15.10;37.76;100286.03;4899888;28;104200;-85
2022/03/18 01:27:41;;;;;;;;;16.75;15.75;;;;;15.10;37.83;100288.75;4898291;28;104353;-85
2022/03/18 01:30:09;;;;;;;;;18.25;17.50;;;;;15.09;37.58;100292.50;4890522;28;102133;-86
2022/03/18 01:32:36;;;;;;;;;16.50;15.75;;;;;15.09;38.03;100289.78;4891155;28;102583;-86
2022/03/18 01:35:04;;;;;;;;;17.75;15.00;;;;;15.10;37.69;100283.31;4900805;28;103159;-85
2022/03/18 01:37:31;;;;;;;;;17.50;15.25;;;;;15.09;37.13;100281.59;4898778;28;102246;-85
2022/03/18 01:39:58;;;;;;;;;20.75;16.75;;;;;15.11;37.83;100289.59;4903502;28;102280;-85
2022/03/18 01:42:25;;;;;;;;;18.75;14.75;;;;;15.10;37.94;100283.31;4888878;28;102917;-86
2022/03/18 01:44:52;;;;;;;;;15.50;15.50;;;;;15.09;37.64;100289.78;4886154;28;104064;-86
2022/03/18 01:47:19;;;;;;;;;14.00;13.25;;;;;15.07;37.98;100283.69;4896687;28;102684;-86
2022/03/18 01:49:46;;;;;;;;;10.75;8.50;;;;;15.07;37.57;100282.84;4893573;28;102408;-85
2022/03/18 01:52:13;;;;;;;;;15.75;15.00;;;;;15.06;37.73;100283.88;4896968;28;104911;-86
2022/03/18 01:54:47;;;;;;;;;16.50;14.00;;;;;15.04;37.80;100286.78;4894921;28;104048;-85
2022/03/18 01:57:19;;;;;;;;;15.25;15.00;;;;;15.03;37.67;100287.81;4896230;28;102697;-85
2022/03/18 01:59:47;;;;;;;;;12.25;12.25;;;;;15.01;37.54;100289.03;4895013;28;102607;-85
2022/03/18 02:02:15;;;;;;;;;12.25;12.25;;;;;15.00;37.52;100290.91;4869448;28;102626;-86
2022/03/18 02:04:43;;;;;;;;;13.50;13.25;;;;;14.99;37.52;100296.56;4878768;28;104421;-86
2022/03/18 02:07:10;;;;;;;;;15.25;13.25;;;;;14.98;37.40;100287.53;4878503;28;104699;-86
2022/03/18 02:09:37;;;;;;;;;16.00;14.50;;;;;14.96;37.57;100286.88;4886462;28;102668;-84
2022/03/18 02:12:05;;;;;;;;;13.00;12.75;;;;;14.95;37.29;100285.19;4894286;28;102597;-86
2022/03/18 02:14:37;;;;;;;;;16.50;15.25;;;;;14.94;37.72;100288.97;4902525;28;108921;-86
2022/03/18 02:17:05;;;;;;;;;14.25;13.25;;;;;14.94;38.00;100294.41;4899412;28;102489;-86
2022/03/18 02:19:33;;;;;;;;;13.75;12.75;;;;;14.94;37.30;100288.97;4897844;28;102607;-86
2022/03/18 02:22:00;;;;;;;;;12.00;11.25;;;;;14.93;37.69;100298.16;4893044;28;104319;-86
2022/03/18 02:24:27;;;;;;;;;15.25;14.00;;;;;14.94;37.44;100297.13;4896450;28;104313;-86
2022/03/18 02:26:55;;;;;;;;;14.25;14.25;;;;;14.92;37.63;100296.47;4899873;28;102480;-86
2022/03/18 02:29:22;;;;;;;;;16.00;12.00;;;;;14.92;37.56;100295.59;4893228;28;102772;-85
2022/03/18 02:31:49;;;;;;;;;14.50;13.50;;;;;14.90;37.30;100295.81;4898975;28;102607;-86
2022/03/18 02:34:17;;;;;;;;;15.00;12.25;;;;;14.90;37.34;100303.13;4891648;28;104438;-85
2022/03/18 02:36:44;;;;;;;;;13.25;13.25;;;;;14.89;37.66;100305.00;4899860;28;102598;-85
2022/03/18 02:39:11;;;;;;;;;14.75;13.75;;;;;14.88;37.52;100316.94;4897766;28;102496;-85
2022/03/18 02:41:38;;;;;;;;;14.00;12.75;;;;;14.88;37.68;100316.09;4894964;28;102637;-85
2022/03/18 02:44:05;;;;;;;;;14.50;13.00;;;;;14.87;37.48;100317.09;4901771;28;105211;-86
2022/03/18 02:46:32;;;;;;;;;13.25;12.00;;;;;14.85;37.49;100322.75;4900364;28;102461;-86
2022/03/18 02:49:01;;;;;;;;;11.75;11.00;;;;;14.85;37.60;100322.75;4898028;28;102822;-85
2022/03/18 02:51:28;;;;;;;;;12.00;10.75;;;;;14.84;37.17;100323.78;4896449;28;102718;-86
2022/03/18 02:53:55;;;;;;;;;11.75;11.00;;;;;14.84;37.31;100339.28;4902317;28;104575;-86
2022/03/18 02:56:22;;;;;;;;;11.75;11.00;;;;;14.82;37.24;100333.16;4893463;28;102750;-85
2022/03/18 02:58:49;;;;;;;;;14.00;12.00;;;;;14.81;37.91;100332.34;4905760;28;102268;-85
2022/03/18 03:01:16;;;;;;;;;11.25;10.50;;;;;14.81;37.42;100343.22;4905288;28;105145;-86
2022/03/18 03:03:43;;;;;;;;;13.75;12.50;;;;;14.80;37.85;100341.53;4893538;28;104439;-85
2022/03/18 03:08:56;;;;;;;;;11.25;11.00;;;;;14.80;37.65;100338.81;4900694;28;102324;-85
2022/03/18 03:11:23;;;;;;;;;11.00;11.00;;;;;14.79;37.46;100345.28;4900957;28;102533;-85
2022/03/18 03:13:50;;;;;;;;;11.75;11.00;;;;;14.80;37.40;100338.81;4902453;28;104128;-85
2022/03/18 03:16:19;;;;;;;;;10.00;9.50;;;;;14.79;37.66;100349.88;4897023;28;102459;-85
2022/03/18 03:18:46;;;;;;;;;11.25;10.50;;;;;14.78;37.28;100342.72;4892710;28;102546;-85
2022/03/18 03:21:14;;;;;;;;;10.50;10.25;;;;;14.76;37.62;100345.66;4904174;28;102452;-85
2022/03/18 03:23:41;;;;;;;;;12.25;11.50;;;;;14.76;37.59;100345.66;4900238;28;104091;-85
2022/03/18 03:26:08;;;;;;;;;11.25;11.25;;;;;14.74;37.40;100350.44;4894410;28;102450;-84
2022/03/18 03:28:35;;;;;;;;;11.00;10.75;;;;;14.73;37.16;100349.59;4903956;28;102528;-85
2022/03/18 03:31:03;;;;;;;;;11.25;9.75;;;;;14.73;37.20;100348.75;4908491;28;102833;-85
2022/03/18 03:33:30;;;;;;;;;12.00;11.00;;;;;14.71;37.31;100351.66;4896461;28;104046;-85
2022/03/18 03:35:57;;;;;;;;;11.75;10.75;;;;;14.72;37.41;100356.06;4898290;28;102815;-85
2022/03/18 03:38:25;;;;;;;;;12.75;11.50;;;;;14.72;37.30;100356.06;4892538;28;102838;-85
2022/03/18 03:40:52;;;;;;;;;13.00;11.00;;;;;14.72;37.75;100355.25;4901219;28;102284;-85
2022/03/18 03:43:19;;;;;;;;;12.00;11.00;;;;;14.72;37.31;100366.13;4902006;28;104123;-85
2022/03/18 03:45:46;;;;;;;;;12.25;11.25;;;;;14.70;37.67;100363.59;4902034;28;102233;-85
2022/03/18 03:48:13;;;;;;;;;14.00;12.00;;;;;14.70;37.69;100363.59;4899458;28;103089;-85
2022/03/18 03:50:42;;;;;;;;;12.75;12.00;;;;;14.72;37.07;100363.41;4905281;28;102527;-84
2022/03/18 03:53:09;;;;;;;;;11.00;10.25;;;;;14.72;37.51;100372.41;4903522;28;104095;-85
2022/03/18 03:55:39;;;;;;;;;12.25;12.00;;;;;14.75;37.32;100376.66;4903073;28;102495;-85
2022/03/18 03:58:07;;;;;;;;;11.25;8.50;;;;;14.75;37.49;100376.66;4893925;28;102283;-85
2022/03/18 04:00:36;;;;;;;;;13.75;12.75;;;;;14.76;37.57;100377.50;4905759;28;102547;-85
2022/03/18 04:03:04;;;;;;;;;10.00;10.00;;;;;14.77;36.93;100382.72;4895119;28;108802;-85
2022/03/18 04:05:34;;;;;;;;;10.25;9.25;;;;;14.75;37.42;100376.66;4901119;28;105089;-85
2022/03/18 04:08:02;;;;;;;;;10.75;10.50;;;;;14.74;37.46;100377.66;4902075;28;102472;-85
2022/03/18 04:10:28;;;;;;;;;9.00;9.00;;;;;14.73;37.17;100381.41;4899478;28;102188;-85
2022/03/18 04:12:55;;;;;;;;;12.00;10.25;;;;;14.71;37.61;100383.50;4908644;28;104424;-85
2022/03/18 04:15:23;;;;;;;;;11.00;10.00;;;;;14.70;37.30;100389.97;4904709;28;103311;-85
2022/03/18 04:17:50;;;;;;;;;11.50;10.00;;;;;14.68;37.01;100389.28;4903459;28;102130;-85
2022/03/18 04:20:22;;;;;;;;;8.00;8.00;;;;;14.68;37.50;100387.41;4901594;28;102242;-85
2022/03/18 04:22:52;;;;;;;;;10.75;10.00;;;;;14.67;37.00;100391.19;4899642;28;104061;-85
2022/03/18 04:25:22;;;;;;;;;12.00;11.00;;;;;14.65;37.50;100400.56;4902571;28;103399;-85
2022/03/18 04:27:49;;;;;;;;;11.75;10.25;;;;;14.66;37.20;100396.81;4902896;28;102544;-85
2022/03/18 04:30:15;;;;;;;;;10.75;10.00;;;;;14.62;37.53;100398.22;4900646;28;102483;-85
2022/03/18 04:32:42;;;;;;;;;11.75;11.00;;;;;14.64;36.95;100410.59;4899175;28;104108;-84
2022/03/18 04:35:10;;;;;;;;;13.75;11.25;;;;;14.63;37.19;100406.16;4893255;28;102179;-85
2022/03/18 04:37:38;;;;;;;;;11.00;10.75;;;;;14.62;37.07;100409.09;4896817;28;102896;-85
2022/03/18 04:40:07;;;;;;;;;11.25;9.50;;;;;14.61;37.18;100412.84;4897554;28;102535;-85
2022/03/18 04:42:34;;;;;;;;;11.00;10.00;;;;;14.61;37.36;100423.72;4899090;28;108958;-85
2022/03/18 04:45:01;;;;;;;;;11.75;9.50;;;;;14.61;37.06;100421.00;4895034;28;102558;-85
2022/03/18 04:47:29;;;;;;;;;9.75;9.00;;;;;14.61;37.11;100426.44;4896137;28;103634;-85
2022/03/18 04:49:59;;;;;;;;;8.25;8.25;;;;;14.61;37.07;100421.00;4903057;28;104308;-85
2022/03/18 04:52:26;;;;;;;;;10.25;9.25;;;;;14.61;37.35;100423.72;4896003;28;104026;-84
2022/03/18 04:54:53;;;;;;;;;12.00;10.00;;;;;14.58;37.24;100419.50;4897205;28;104249;-84
2022/03/18 04:57:20;;;;;;;;;9.00;9.00;;;;;14.58;36.79;100424.97;4898903;28;102690;-84
2022/03/18 04:59:51;;;;;;;;;8.25;8.25;;;;;14.57;36.95;100425.13;4902161;28;102424;-84
2022/03/18 05:02:18;;;;;;;;;10.50;9.75;;;;;14.57;37.46;100427.84;4897505;28;104077;-85
2022/03/18 05:04:46;;;;;;;;;8.50;8.50;;;;;14.56;37.25;100428.88;4901885;28;102267;-85
2022/03/18 05:07:12;;;;;;;;;9.25;9.00;;;;;14.56;37.55;100429.72;4896623;28;104121;-85
2022/03/18 05:09:40;;;;;;;;;11.50;10.00;;;;;14.55;38.21;100433.47;4899437;28;104247;-84
2022/03/18 05:12:12;;;;;;;;;9.25;9.25;;;;;14.56;37.37;100427.00;4904097;28;104109;-85
2022/03/18 05:14:39;;;;;;;;;10.50;9.00;;;;;14.57;37.85;100419.69;4903269;28;102610;-84
2022/03/18 05:17:08;;;;;;;;;10.00;9.00;;;;;14.55;37.72;100432.63;4911040;28;102699;-84
2022/03/18 05:19:35;;;;;;;;;9.00;8.00;;;;;14.57;36.90;100436.00;4896080;28;103033;-85
2022/03/18 05:22:03;;;;;;;;;10.00;8.75;;;;;14.57;37.92;100428.69;4900908;28;104381;-85
2022/03/18 05:24:30;;;;;;;;;10.25;9.00;;;;;14.56;37.17;100431.59;4899751;28;103031;-84
2022/03/18 05:26:57;;;;;;;;;9.00;9.00;;;;;14.55;37.21;100438.91;4902813;28;102732;-84
2022/03/18 05:29:25;;;;;;;;;9.25;8.25;;;;;14.56;37.05;100437.03;4906924;28;102722;-84
2022/03/18 05:31:53;;;;;;;;;9.00;8.25;;;;;14.55;37.28;100440.78;4904872;28;104312;-84
2022/03/18 05:34:19;;;;;;;;;9.25;8.50;;;;;14.54;37.28;100448.13;4897825;28;102615;-84
2022/03/18 05:36:46;;;;;;;;;11.00;8.50;;;;;14.54;37.67;100450.00;4904981;28;102187;-85
2022/03/18 05:39:13;;;;;;;;;7.00;7.00;;;;;14.51;37.21;100447.63;4901235;28;102255;-83
2022/03/18 05:41:43;;;;;;;;;9.00;7.25;;;;;14.53;36.89;100453.75;4911069;28;104079;-85
2022/03/18 05:44:10;;;;;;;;;11.50;10.00;;;;;14.51;37.15;100448.47;4902136;28;102901;-84
2022/03/18 05:46:41;;;;;;;;;9.00;8.00;;;;;14.51;37.05;100455.78;4898910;28;103981;-84
2022/03/18 05:49:09;;;;;;;;;11.25;10.00;;;;;14.49;37.24;100457.88;4906878;28;102620;-84
2022/03/18 05:51:36;;;;;;;;;8.50;8.00;;;;;14.50;37.09;100465.00;4906328;28;108954;-84
2022/03/18 05:54:03;;;;;;;;;11.50;10.00;;;;;14.49;36.69;100458.72;4909908;28;102418;-84
2022/03/18 05:59:16;;;;;;;;;8.75;8.25;;;;;14.50;37.03;100467.72;4898129;28;102595;-84
2022/03/18 06:01:43;;;;;;;;;9.00;9.00;;;;;14.49;36.85;100463.31;4903332;28;104116;-83
2022/03/18 06:04:10;;;;;;;;;9.00;8.75;;;;;14.50;36.91;100470.44;4903167;28;102544;-84
2022/03/18 06:06:38;;;;;;;;;9.75;9.50;;;;;14.49;37.25;100474.19;4903532;28;102655;-85
2022/03/18 06:11:53;;;;;;;;;10.50;8.50;;;;;14.49;36.77;100487.81;4903488;28;108849;-84
2022/03/18 06:14:25;;;;;;;;;9.25;8.00;;;;;14.48;37.66;100488.81;4906463;28;103296;-84
2022/03/18 06:16:53;;;;;;;;;9.75;9.00;;;;;14.50;37.10;100492.22;4906421;28;102242;-84
2022/03/18 06:19:21;;;;;;;;;6.75;6.50;;;;;14.51;37.28;100494.75;4901225;28;103964;-84
2022/03/18 06:21:48;;;;;;;;;8.00;7.50;;;;;14.50;36.67;100497.66;4896394;28;103852;-85
2022/03/18 06:24:16;;;;;;;;;9.75;8.75;;;;;14.50;36.80;100498.50;4901263;28;102491;-84
2022/03/18 06:26:42;;;;;;;;;7.75;7.25;;;;;14.52;37.02;100501.91;4915051;28;102668;-83
2022/03/18 06:29:10;;;;;;;;;10.00;8.00;;;;;14.52;37.07;100501.03;4902713;28;102370;-84
2022/03/18 06:31:37;;;;;;;;;9.25;8.00;;;;;14.54;37.17;100505.28;4891402;28;105489;-83
2022/03/18 06:34:04;;;;;;;;;11.75;10.00;;;;;14.54;36.97;100509.88;4900386;28;102344;-83
2022/03/18 06:36:31;;;;;;;;;9.25;9.00;;;;;14.56;37.07;100507.81;4898029;28;102830;-82
2022/03/18 06:38:58;;;;;;;;;9.75;9.00;;;;;14.55;36.46;100506.97;4899727;28;102132;-82
2022/03/18 06:41:25;;;;;;;;;9.00;9.00;;;;;14.56;37.05;100508.66;4901196;28;104043;-82
2022/03/18 06:43:52;;;;;;;;;8.75;8.75;;;;;14.55;36.58;100512.41;4897114;28;106083;-82
2022/03/18 06:46:19;;;;;;;;;10.75;7.75;;;;;14.56;37.06;100510.53;4900341;28;102632;-82
2022/03/18 06:48:46;;;;;;;;;8.25;8.00;;;;;14.55;36.51;100511.56;4904542;28;102728;-83
2022/03/18 06:51:12;;;;;;;;;11.50;10.25;;;;;14.54;36.81;100515.34;4899261;28;104015;-82
2022/03/18 06:53:39;;;;;;;;;10.00;8.00;;;;;14.52;36.98;100518.22;4901087;28;102352;-82
2022/03/18 06:56:06;;;;;;;;;10.50;9.00;;;;;14.53;37.12;100516.34;4902645;28;102081;-82
2022/03/18 06:58:34;;;;;;;;;8.50;7.75;;;;;14.52;37.13;100515.50;4892062;28;104342;-82
2022/03/18 07:01:00;;;;;;;;;8.00;7.25;;;;;14.52;36.44;100523.66;4890927;28;104264;-82
2022/03/18 07:03:27;;;;;;;;;9.00;8.75;;;;;14.50;36.54;100520.25;4898307;28;102185;-82
2022/03/18 07:05:55;;;;;;;;;11.00;9.00;;;;;14.51;37.10;100521.13;4900499;28;102642;-82
2022/03/18 07:08:21;;;;;;;;;8.00;7.00;;;;;14.49;37.10;100517.75;4897116;28;102876;-82
2022/03/18 07:10:48;;;;;;;;;11.50;9.00;;;;;14.49;37.13;100525.91;4895781;28;104825;-82
2022/03/18 07:13:16;;;;;;;;;10.75;8.00;;;;;14.49;36.40;100524.03;4902351;28;102182;-82
2022/03/18 07:15:43;;;;;;;;;11.25;10.50;;;;;14.50;36.63;100530.34;4907421;28;102563;-82
2022/03/18 07:18:10;;;;;;;;;7.00;7.00;;;;;14.51;37.06;100540.16;4901986;28;103198;-82
2022/03/18 07:20:38;;;;;;;;;10.00;8.75;;;;;14.50;36.86;100531.16;4893602;28;104083;-82
2022/03/18 07:23:10;;;;;;;;;9.25;8.00;;;;;14.50;36.40;100536.59;4902126;28;102484;-82
2022/03/18 07:25:41;;;;;;;;;6.50;6.25;;;;;14.55;36.91;100544.22;4903637;28;102555;-83
2022/03/18 07:28:09;;;;;;;;;9.00;9.00;;;;;14.56;36.51;100540.47;4913268;28;102665;-82
2022/03/18 07:30:37;;;;;;;;;8.00;7.25;;;;;14.58;36.99;100542.03;4894382;28;104809;-82
2022/03/18 07:33:04;;;;;;;;;8.75;7.00;;;;;14.63;36.79;100552.38;4898861;28;105730;-82
2022/03/18 07:35:31;;;;;;;;;7.75;6.50;;;;;14.66;37.11;100552.84;4906605;28;102187;-82
2022/03/18 07:37:59;;;;;;;;;9.00;7.00;;;;;14.70;37.01;100553.34;4900092;28;102648;-82
2022/03/18 07:40:25;;;;;;;;;7.75;6.50;;;;;14.72;37.07;100554.84;4897892;28;104411;-82
2022/03/18 07:42:54;;;;;;;;;8.50;7.25;;;;;14.77;36.73;100554.28;4900786;28;102439;-82
2022/03/18 07:45:27;;;;;;;;;8.75;7.00;;;;;14.79;37.21;100565.88;4896772;28;102218;-82
2022/03/18 07:47:56;;;;;;;;;7.25;5.75;;;;;14.82;36.73;100565.50;4893667;28;102391;-83
2022/03/18 07:50:23;;;;;;;;;6.75;6.00;;;;;14.86;37.03;100564.09;4897564;28;104332;-82
2022/03/18 07:52:52;;;;;;;;;9.00;8.00;;;;;14.88;36.62;100562.06;4905390;28;102460;-82
2022/03/18 07:55:19;;;;;;;;;7.25;6.00;;;;;14.92;36.75;100568.84;4924550;28;104307;-83
2022/03/18 07:57:46;;;;;;;;;6.75;6.50;;;;;14.93;36.42;100565.09;4901921;28;103572;-82
2022/03/18 08:00:14;;;;;;;;;9.00;7.75;;;;;14.95;36.99;100563.03;4906547;28;104199;-82
2022/03/18 08:02:42;;;;;;;;;9.50;7.50;;;;;14.96;36.48;100564.72;4897246;28;102200;-83
2022/03/18 08:05:09;;;;;;;;;8.00;7.00;;;;;15.00;36.52;100565.19;4912678;28;105850;-83
2022/03/18 08:07:36;;;;;;;;;7.25;7.00;;;;;15.00;36.33;100576.09;4894451;28;102608;-82
2022/03/18 08:10:04;;;;;;;;;8.25;6.75;;;;;15.01;36.79;100578.66;4923240;28;104080;-83
2022/03/18 08:12:31;;;;;;;;;6.25;6.25;;;;;15.03;36.72;100565.72;4907451;28;102561;-83
2022/03/18 08:14:59;;;;;;;;;8.00;7.75;;;;;15.03;36.68;100571.16;4903947;28;103465;-82
2022/03/18 08:17:26;;;;;;;;;8.00;6.00;;;;;15.03;37.00;100570.31;4904521;28;102987;-82
2022/03/18 08:19:53;;;;;;;;;6.75;6.50;;;;;15.04;36.57;100577.47;4902950;28;104081;-82
2022/03/18 08:22:21;;;;;;;;;6.50;6.50;;;;;15.04;36.90;100572.00;4874127;28;102271;-82
2022/03/18 08:24:48;;;;;;;;;8.50;7.50;;;;;15.06;36.27;100578.09;4904190;28;101959;-82
2022/03/18 08:27:16;;;;;;;;;5.50;5.25;;;;;15.07;36.45;100577.94;4917653;28;102368;-82
2022/03/18 08:29:43;;;;;;;;;6.00;6.00;;;;;15.08;37.10;100595.97;4911316;28;104040;-82
2022/03/18 08:32:12;;;;;;;;;5.00;4.75;;;;;15.10;36.42;100593.91;4906202;28;102673;-82
2022/03/18 08:34:39;;;;;;;;;8.25;6.50;;;;;15.08;36.92;100595.97;4911645;28;104589;-83
2022/03/18 08:37:06;;;;;;;;;6.00;6.00;;;;;15.11;36.94;100589.31;4904857;28;103605;-82
2022/03/18 08:39:33;;;;;;;;;8.50;7.00;;;;;15.10;36.97;100593.91;4906185;28;104357;-82
2022/03/18 08:42:00;;;;;;;;;9.00;6.25;;;;;15.12;36.68;100599.19;4903597;28;102128;-82
2022/03/18 08:44:27;;;;;;;;;7.00;6.00;;;;;15.11;36.94;100601.06;4904286;28;102652;-83
2022/03/18 08:46:55;;;;;;;;;5.00;4.00;;;;;15.11;36.78;100602.94;4905424;28;103159;-82
2022/03/18 08:49:22;;;;;;;;;10.25;7.75;;;;;15.11;36.66;100597.50;4904914;28;103925;-83
2022/03/18 08:51:49;;;;;;;;;7.00;6.00;;;;;15.10;36.85;100604.81;4908136;28;102384;-83
2022/03/18 08:54:16;;;;;;;;;7.00;7.00;;;;;15.10;37.01;100593.06;4903921;28;103050;-83
2022/03/18 08:56:43;;;;;;;;;7.25;6.50;;;;;15.10;36.60;100603.97;4909225;28;103847;-83
2022/03/18 08:59:10;;;;;;;;;7.00;6.50;;;;;15.10;36.89;100604.81;4908138;28;109545;-83
2022/03/18 09:01:37;;;;;;;;;7.25;7.00;;;;;15.11;36.96;100601.06;4903819;28;102367;-83
2022/03/18 09:04:05;;;;;;;;;8.25;7.50;;;;;15.11;36.58;100601.06;4901530;28;102804;-83
2022/03/18 09:06:31;;;;;;;;;7.75;6.75;;;;;15.10;36.89;100604.81;4900441;28;103147;-83
2022/03/18 09:09:03;;;;;;;;;8.00;7.00;;;;;15.11;36.43;100606.50;4893307;28;104281;-83
2022/03/18 09:11:30;;;;;;;;;7.00;6.00;;;;;15.11;36.54;100595.63;4910229;28;103391;-83
2022/03/18 09:13:57;;;;;;;;;7.00;7.00;;;;;15.11;36.76;100606.50;4910741;28;102473;-83
2022/03/18 09:16:24;;;;;;;;;6.25;5.00;;;;;15.12;36.67;100610.09;4905429;28;102749;-83
2022/03/18 09:18:59;;;;;;;;;9.00;8.00;;;;;15.11;36.53;100617.41;4902857;28;104455;-83
2022/03/18 09:21:26;;;;;;;;;8.25;6.50;;;;;15.11;36.76;100616.56;4909718;28;102183;-83
2022/03/18 09:23:53;;;;;;;;;6.00;6.00;;;;;15.10;36.53;100609.41;4916549;28;102341;-83
2022/03/18 09:26:20;;;;;;;;;5.75;5.75;;;;;15.10;36.24;100617.59;4907839;28;103670;-83
2022/03/18 09:28:47;;;;;;;;;8.25;7.00;;;;;15.10;36.14;100614.84;4903916;28;104073;-83
2022/03/18 09:31:14;;;;;;;;;7.75;6.75;;;;;15.09;36.09;100613.16;4907034;28;102476;-83
2022/03/18 09:33:42;;;;;;;;;5.00;5.00;;;;;15.09;36.53;100614.00;4921840;28;102606;-83
2022/03/18 09:36:14;;;;;;;;;8.75;6.50;;;;;15.09;36.80;100622.19;4906594;28;102455;-83
2022/03/18 09:38:41;;;;;;;;;7.75;6.25;;;;;15.09;36.70;100618.59;4903805;28;109295;-83
2022/03/18 09:41:09;;;;;;;;;7.00;7.00;;;;;15.09;36.33;100624.91;4904457;28;102512;-83
2022/03/18 09:43:37;;;;;;;;;6.50;5.50;;;;;15.10;36.24;100629.34;4902144;28;103536;-83
2022/03/18 09:46:04;;;;;;;;;8.00;6.50;;;;;15.11;36.06;100633.75;4906698;28;102766;-83
2022/03/18 09:48:52;;;;;;;;;7.25;7.00;;;;;15.11;36.51;100630.19;4903943;28;109876;-83
2022/03/18 09:51:19;;;;;;;;;6.75;6.75;;;;;15.12;36.37;100630.00;4906682;28;102710;-83
2022/03/18 09:54:06;;;;;;;;;6.00;6.00;;;;;15.13;36.38;100630.84;4906846;28;102145;-83
2022/03/18 09:56:34;;;;;;;;;7.50;7.00;;;;;15.12;36.33;100630.00;4903853;28;102178;-83
2022/03/18 09:59:01;;;;;;;;;7.00;7.00;;;;;15.11;36.00;100633.75;4920567;28;104078;-83
2022/03/18 10:01:28;;;;;;;;;6.00;5.00;;;;;15.12;36.53;100640.91;4902846;28;102344;-83
2022/03/18 10:03:57;;;;;;;;;6.25;6.25;;;;;15.13;36.40;100631.69;4902662;28;102673;-83
2022/03/18 10:06:27;;;;;;;;;6.00;5.00;;;;;15.11;36.71;100639.22;4905298;28;103405;-83
2022/03/18 10:08:55;;;;;;;;;7.00;5.50;;;;;15.12;36.46;100635.47;4904819;28;104387;-83
2022/03/18 10:11:23;;;;;;;;;6.50;6.50;;;;;15.12;36.62;100645.50;4904460;28;102352;-83
2022/03/18 10:14:03;;;;;;;;;5.50;5.50;;;;;15.12;36.63;100646.38;4902547;28;104346;-83
2022/03/18 10:16:33;;;;;;;;;6.00;5.50;;;;;15.11;36.52;100636.50;4903507;28;102720;-83
2022/03/18 10:19:01;;;;;;;;;6.25;6.25;;;;;15.11;36.22;100632.91;4902667;28;105497;-83
2022/03/18 10:21:31;;;;;;;;;6.50;6.25;;;;;15.14;36.40;100635.25;4910890;28;102190;-83
2022/03/18 10:24:09;;;;;;;;;7.75;6.50;;;;;15.17;36.44;100643.91;4900300;28;102510;-83
2022/03/18 10:26:37;;;;;;;;;5.50;5.25;;;;;15.17;36.41;100637.66;4899323;28;102314;-83
2022/03/18 10:29:04;;;;;;;;;7.00;5.75;;;;;15.19;36.28;100630.97;4904226;28;104540;-83
2022/03/18 10:31:31;;;;;;;;;6.75;6.50;;;;;15.19;36.28;100639.16;4906846;28;102620;-83
2022/03/18 10:37:04;;;;;;;;;6.75;5.00;;;;;15.22;36.44;100648.00;4919371;28;102785;-83
2022/03/18 10:39:39;;;;;;;;;5.25;5.00;;;;;15.22;36.22;100639.84;4890866;28;104195;-83
2022/03/18 10:42:14;;;;;;;;;6.00;6.00;;;;;15.22;36.20;100643.38;4908048;28;103012;-83
2022/03/18 10:44:47;;;;;;;;;7.75;6.00;;;;;15.21;36.24;100633.53;4903466;28;103421;-84
2022/03/18 10:47:23;;;;;;;;;6.25;5.25;;;;;15.22;35.88;100637.09;4920339;28;102649;-83
2022/03/18 10:49:50;;;;;;;;;8.00;6.00;;;;;15.21;36.15;100638.97;4902539;28;109086;-83
2022/03/18 10:52:17;;;;;;;;;7.25;6.25;;;;;15.23;36.13;100636.06;4902029;28;102607;-83
2022/03/18 10:54:44;;;;;;;;;6.00;6.00;;;;;15.25;36.01;100639.47;4906338;28;102488;-83
2022/03/18 10:57:11;;;;;;;;;6.00;5.00;;;;;15.25;36.62;100644.91;4903868;28;102186;-83
2022/03/18 10:59:38;;;;;;;;;7.25;7.25;;;;;15.26;36.57;100636.56;4899662;28;104172;-83
2022/03/18 11:02:05;;;;;;;;;5.00;4.00;;;;;15.28;36.37;100639.09;4907723;28;104437;-83
2022/03/18 11:04:32;;;;;;;;;7.00;7.00;;;;;15.29;36.14;100643.50;4900534;28;103253;-83
2022/03/18 11:12:31;;;;;;;;;7.00;6.00;;;;;15.34;36.27;100638.38;4915556;28;102590;-84
2022/03/18 11:14:59;;;;;;;;;6.00;6.00;;;;;15.36;36.56;100641.75;4918795;28;102694;-83
2022/03/18 11:17:25;;;;;;;;;7.00;6.00;;;;;15.38;36.29;100645.16;4903791;28;104116;-83
2022/03/18 11:19:53;;;;;;;;;6.00;5.00;;;;;15.38;36.06;100639.69;4913072;28;104069;-84
2022/03/18 11:22:21;;;;;;;;;5.00;5.00;;;;;15.39;36.30;100642.25;4906546;28;102547;-84
2022/03/18 11:24:48;;;;;;;;;5.50;5.25;;;;;15.41;36.51;100650.22;4905355;28;104193;-83
2022/03/18 11:27:16;;;;;;;;;7.25;6.25;;;;;15.42;36.20;100646.47;4899855;28;102688;-83
2022/03/18 11:29:43;;;;;;;;;8.25;6.25;;;;;15.42;36.29;100650.06;4907706;28;108988;-84
2022/03/18 11:32:10;;;;;;;;;6.00;5.25;;;;;15.43;36.18;100631.81;4899124;28;102673;-83
2022/03/18 11:35:06;;;;;;;;;5.00;5.00;;;;;15.43;36.30;100631.81;4902467;28;102396;-83